Hellas Glory — 9HWN9 — position and weather

sailwx.info

Track history (hours):
 
Tides and Currents Weather Stations Pressure Air Temp Water Temp Dewpoint Dewpoint Depression Visibility Wind Speed Wind Dir Waves Ship Positions

Hellas Glory

Last reported at 2016-Sep-18 10:33 UTC. Time now 2016-Sep-25 07:09 UTC.
Position N 27°47' W 015°19'.

Length 225 m; draft 7.8 m.

Type: Tanker. MMSI: 249636000.

Date/timePositionNaut miles runAvg speedWind from/ knotsBaromVisibWave heightAir tempDewpointWater temp
2016-Sep-18 10:33N 27°47' W 015°19'1413.8
2016-Sep-18 09:33N 28°01' W 015°17'10 1.4
2016-Sep-18 02:33N 28°09' W 015°24'0 0.0
2016-Sep-18 01:33N 28°09' W 015°23'0 0.0
2016-Sep-18 00:33N 28°09' W 015°23'0 0.0
2016-Sep-17 22:27N 28°09' W 015°24'0 0.0
2016-Sep-17 21:27N 28°09' W 015°24'1 1.5
2016-Sep-17 20:33N 28°08' W 015°23'10 7.9
2016-Sep-17 19:16N 28°14' W 015°14'8714.7
2016-Sep-17 13:21N 29°33' W 014°33'1214.8
2016-Sep-17 12:33N 29°45' W 014°30'  
2016-Sep-13 11:33N 50°02' W 002°31'3416.3
2016-Sep-13 09:30N 50°12' W 001°41'2814.6
2016-Sep-13 07:33N 50°19' W 000°58'1313.1
2016-Sep-13 06:33N 50°23' W 000°38'2613.0
2016-Sep-13 04:33N 50°29' E 000°01'2814.1
2016-Sep-13 02:33N 50°38' E 000°44'4414.7
2016-Sep-12 23:33N 51°08' E 001°35'2512.4
2016-Sep-12 21:33N 51°25' E 002°03'2612.8
2016-Sep-12 19:33N 51°23' E 002°44'2713.6
2016-Sep-12 17:33N 51°25' E 003°28'12 0.3
2016-Sep-11 02:18N 51°20' E 003°46'1 0.8
2016-Sep-11 01:33N 51°21' E 003°46'7 6.9
2016-Sep-11 00:33N 51°26' E 003°39'8 7.9
2016-Sep-10 23:33N 51°25' E 003°27'1211.5
2016-Sep-10 22:33N 51°24' E 003°08'1211.8
2016-Sep-10 21:33N 51°25' E 002°49'9 9.3
2016-Sep-10 20:33N 51°22' E 002°35'1413.8
2016-Sep-10 19:33N 51°17' E 002°15'1616.5
2016-Sep-10 18:33N 51°08' E 001°52'1717.1
2016-Sep-10 17:33N 50°57' E 001°32'5416.1
2016-Sep-10 14:14N 50°25' E 000°25'1217.3
2016-Sep-10 13:33N 50°22' E 000°07'1717.2
2016-Sep-10 12:33N 50°17' W 000°19'1717.0
2016-Sep-10 11:33N 50°12' W 000°44'7915.3
2016-Sep-10 06:25N 49°52' W 002°43'2815.2
2016-Sep-10 04:33N 49°39' W 003°22'2115.5
2016-Sep-10 03:12N 49°28' W 003°50'3015.7
2016-Sep-10 01:17N 49°14' W 004°30'1215.9
2016-Sep-10 00:32N 49°08' W 004°46'1615.7
2016-Sep-09 23:32N 48°60' W 005°07'1716.0
2016-Sep-09 22:29N 48°52' W 005°29'  
Track history (hours):
 
Tides and Currents Weather Stations Pressure Air Temp Water Temp Dewpoint Dewpoint Depression Visibility Wind Speed Wind Dir Waves Ship Positions

Hellas Glory

Last reported at 2016-Sep-18 10:33 UTC. Time now 2016-Sep-25 07:09 UTC.
Position N 27°47' W 015°19'.

Length 225 m; draft 7.8 m.

Type: Tanker. MMSI: 249636000.

Date/timePositionNaut miles runAvg speedWind from/ knotsBaromVisibWave heightAir tempDewpointWater temp
2016-Sep-18 10:33N 27°47' W 015°19'1413.8
2016-Sep-18 09:33N 28°01' W 015°17'10 1.4
2016-Sep-18 02:33N 28°09' W 015°24'0 0.0
2016-Sep-18 01:33N 28°09' W 015°23'0 0.0
2016-Sep-18 00:33N 28°09' W 015°23'0 0.0
2016-Sep-17 22:27N 28°09' W 015°24'0 0.0
2016-Sep-17 21:27N 28°09' W 015°24'1 1.5
2016-Sep-17 20:33N 28°08' W 015°23'10 7.9
2016-Sep-17 19:16N 28°14' W 015°14'8714.7
2016-Sep-17 13:21N 29°33' W 014°33'1214.8
2016-Sep-17 12:33N 29°45' W 014°30'  
2016-Sep-13 11:33N 50°02' W 002°31'3416.3
2016-Sep-13 09:30N 50°12' W 001°41'2814.6
2016-Sep-13 07:33N 50°19' W 000°58'1313.1
2016-Sep-13 06:33N 50°23' W 000°38'2613.0
2016-Sep-13 04:33N 50°29' E 000°01'2814.1
2016-Sep-13 02:33N 50°38' E 000°44'4414.7
2016-Sep-12 23:33N 51°08' E 001°35'2512.4
2016-Sep-12 21:33N 51°25' E 002°03'2612.8
2016-Sep-12 19:33N 51°23' E 002°44'2713.6
2016-Sep-12 17:33N 51°25' E 003°28'12 0.3
2016-Sep-11 02:18N 51°20' E 003°46'1 0.8
2016-Sep-11 01:33N 51°21' E 003°46'7 6.9
2016-Sep-11 00:33N 51°26' E 003°39'8 7.9
2016-Sep-10 23:33N 51°25' E 003°27'1211.5
2016-Sep-10 22:33N 51°24' E 003°08'1211.8
2016-Sep-10 21:33N 51°25' E 002°49'9 9.3
2016-Sep-10 20:33N 51°22' E 002°35'1413.8
2016-Sep-10 19:33N 51°17' E 002°15'1616.5
2016-Sep-10 18:33N 51°08' E 001°52'1717.1
2016-Sep-10 17:33N 50°57' E 001°32'5416.1
2016-Sep-10 14:14N 50°25' E 000°25'1217.3
2016-Sep-10 13:33N 50°22' E 000°07'1717.2
2016-Sep-10 12:33N 50°17' W 000°19'1717.0
2016-Sep-10 11:33N 50°12' W 000°44'7915.3
2016-Sep-10 06:25N 49°52' W 002°43'2815.2
2016-Sep-10 04:33N 49°39' W 003°22'2115.5
2016-Sep-10 03:12N 49°28' W 003°50'3015.7
2016-Sep-10 01:17N 49°14' W 004°30'1215.9
2016-Sep-10 00:32N 49°08' W 004°46'1615.7
2016-Sep-09 23:32N 48°60' W 005°07'1716.0
2016-Sep-09 22:29N 48°52' W 005°29'  

Dump ship's entire track history